sensor_id;sensor_type;location;lat;lon;timestamp;P1;durP1;ratioP1;P2;durP2;ratioP2
70806;SDS011;58882;52.170;5.386;2023-08-31T00:01:03;2.45;;;0.90;;
70806;SDS011;58882;52.170;5.386;2023-08-31T00:03:30;1.52;;;1.02;;
70806;SDS011;58882;52.170;5.386;2023-08-31T00:06:01;1.85;;;1.15;;
70806;SDS011;58882;52.170;5.386;2023-08-31T00:08:28;2.53;;;1.08;;
70806;SDS011;58882;52.170;5.386;2023-08-31T00:10:59;3.45;;;1.20;;
70806;SDS011;58882;52.170;5.386;2023-08-31T00:13:29;1.77;;;0.95;;
70806;SDS011;58882;52.170;5.386;2023-08-31T00:15:56;2.22;;;1.00;;
70806;SDS011;58882;52.170;5.386;2023-08-31T00:18:24;4.90;;;1.38;;
70806;SDS011;58882;52.170;5.386;2023-08-31T00:20:52;2.50;;;1.20;;
70806;SDS011;58882;52.170;5.386;2023-08-31T00:23:19;2.67;;;1.10;;
70806;SDS011;58882;52.170;5.386;2023-08-31T00:25:46;4.35;;;1.00;;
70806;SDS011;58882;52.170;5.386;2023-08-31T00:28:18;3.83;;;1.13;;
70806;SDS011;58882;52.170;5.386;2023-08-31T00:30:46;2.42;;;0.90;;
70806;SDS011;58882;52.170;5.386;2023-08-31T00:33:13;3.70;;;1.30;;
70806;SDS011;58882;52.170;5.386;2023-08-31T00:35:41;4.53;;;1.30;;
70806;SDS011;58882;52.170;5.386;2023-08-31T00:38:12;3.92;;;1.33;;
70806;SDS011;58882;52.170;5.386;2023-08-31T00:40:41;4.22;;;1.40;;
70806;SDS011;58882;52.170;5.386;2023-08-31T00:43:12;4.72;;;1.40;;
70806;SDS011;58882;52.170;5.386;2023-08-31T00:45:42;3.50;;;1.30;;
70806;SDS011;58882;52.170;5.386;2023-08-31T00:50:41;2.92;;;1.35;;
70806;SDS011;58882;52.170;5.386;2023-08-31T00:53:08;4.38;;;1.30;;
70806;SDS011;58882;52.170;5.386;2023-08-31T00:55:35;5.20;;;1.50;;
70806;SDS011;58882;52.170;5.386;2023-08-31T01:03:24;3.95;;;1.30;;
70806;SDS011;58882;52.170;5.386;2023-08-31T01:06:07;4.10;;;1.23;;
70806;SDS011;58882;52.170;5.386;2023-08-31T01:08:50;5.53;;;1.52;;
70806;SDS011;58882;52.170;5.386;2023-08-31T01:11:30;3.72;;;1.15;;
70806;SDS011;58882;52.170;5.386;2023-08-31T01:14:15;3.92;;;1.33;;
70806;SDS011;58882;52.170;5.386;2023-08-31T01:16:48;2.47;;;1.35;;
70806;SDS011;58882;52.170;5.386;2023-08-31T01:19:31;4.30;;;1.45;;
70806;SDS011;58882;52.170;5.386;2023-08-31T01:22:07;4.25;;;1.20;;
70806;SDS011;58882;52.170;5.386;2023-08-31T01:24:39;6.45;;;1.60;;
70806;SDS011;58882;52.170;5.386;2023-08-31T01:27:07;6.38;;;1.80;;
70806;SDS011;58882;52.170;5.386;2023-08-31T01:29:34;7.30;;;1.75;;
70806;SDS011;58882;52.170;5.386;2023-08-31T01:32:04;2.60;;;1.30;;
70806;SDS011;58882;52.170;5.386;2023-08-31T01:34:33;5.90;;;1.55;;
70806;SDS011;58882;52.170;5.386;2023-08-31T01:37:14;3.55;;;1.70;;
70806;SDS011;58882;52.170;5.386;2023-08-31T01:39:47;3.80;;;1.60;;
70806;SDS011;58882;52.170;5.386;2023-08-31T01:42:46;4.40;;;1.63;;
70806;SDS011;58882;52.170;5.386;2023-08-31T01:45:14;5.35;;;1.40;;
70806;SDS011;58882;52.170;5.386;2023-08-31T01:47:47;4.38;;;1.70;;
70806;SDS011;58882;52.170;5.386;2023-08-31T01:50:17;7.72;;;1.63;;
70806;SDS011;58882;52.170;5.386;2023-08-31T01:52:44;5.80;;;2.20;;
70806;SDS011;58882;52.170;5.386;2023-08-31T01:55:11;7.45;;;2.30;;
70806;SDS011;58882;52.170;5.386;2023-08-31T01:57:42;6.28;;;2.03;;
70806;SDS011;58882;52.170;5.386;2023-08-31T02:00:16;7.93;;;2.30;;
70806;SDS011;58882;52.170;5.386;2023-08-31T02:02:46;7.45;;;2.00;;
70806;SDS011;58882;52.170;5.386;2023-08-31T02:05:13;5.63;;;1.90;;
70806;SDS011;58882;52.170;5.386;2023-08-31T02:07:40;5.82;;;1.73;;
70806;SDS011;58882;52.170;5.386;2023-08-31T02:10:07;5.30;;;1.52;;
70806;SDS011;58882;52.170;5.386;2023-08-31T02:12:34;3.83;;;1.70;;
70806;SDS011;58882;52.170;5.386;2023-08-31T02:15:04;5.53;;;1.83;;
70806;SDS011;58882;52.170;5.386;2023-08-31T02:17:32;5.70;;;1.85;;
70806;SDS011;58882;52.170;5.386;2023-08-31T02:20:01;5.10;;;1.85;;
70806;SDS011;58882;52.170;5.386;2023-08-31T02:22:31;4.40;;;1.73;;
70806;SDS011;58882;52.170;5.386;2023-08-31T02:25:00;5.07;;;1.63;;
70806;SDS011;58882;52.170;5.386;2023-08-31T02:27:29;3.10;;;1.63;;
70806;SDS011;58882;52.170;5.386;2023-08-31T02:29:56;3.90;;;1.35;;
70806;SDS011;58882;52.170;5.386;2023-08-31T02:32:23;3.85;;;1.10;;
70806;SDS011;58882;52.170;5.386;2023-08-31T02:34:50;4.07;;;1.83;;
70806;SDS011;58882;52.170;5.386;2023-08-31T02:37:17;4.00;;;1.50;;
70806;SDS011;58882;52.170;5.386;2023-08-31T02:39:44;6.05;;;1.35;;
70806;SDS011;58882;52.170;5.386;2023-08-31T02:42:11;4.88;;;1.20;;
70806;SDS011;58882;52.170;5.386;2023-08-31T02:44:37;5.45;;;1.80;;
70806;SDS011;58882;52.170;5.386;2023-08-31T02:47:04;5.20;;;2.22;;
70806;SDS011;58882;52.170;5.386;2023-08-31T02:49:31;4.57;;;1.85;;
70806;SDS011;58882;52.170;5.386;2023-08-31T02:51:58;3.95;;;1.45;;
70806;SDS011;58882;52.170;5.386;2023-08-31T02:54:25;5.18;;;1.60;;
70806;SDS011;58882;52.170;5.386;2023-08-31T02:56:52;3.10;;;1.55;;
70806;SDS011;58882;52.170;5.386;2023-08-31T02:59:18;3.50;;;1.60;;
70806;SDS011;58882;52.170;5.386;2023-08-31T03:01:45;3.33;;;1.17;;
70806;SDS011;58882;52.170;5.386;2023-08-31T03:04:13;3.08;;;1.40;;
70806;SDS011;58882;52.170;5.386;2023-08-31T03:06:40;3.80;;;1.50;;
70806;SDS011;58882;52.170;5.386;2023-08-31T03:09:07;5.15;;;2.33;;
70806;SDS011;58882;52.170;5.386;2023-08-31T03:11:34;5.80;;;1.55;;
70806;SDS011;58882;52.170;5.386;2023-08-31T03:14:01;4.43;;;1.40;;
70806;SDS011;58882;52.170;5.386;2023-08-31T03:16:28;5.72;;;1.40;;
70806;SDS011;58882;52.170;5.386;2023-08-31T03:18:55;5.45;;;1.23;;
70806;SDS011;58882;52.170;5.386;2023-08-31T03:21:23;3.00;;;1.30;;
70806;SDS011;58882;52.170;5.386;2023-08-31T03:23:49;5.93;;;1.20;;
70806;SDS011;58882;52.170;5.386;2023-08-31T03:26:16;4.93;;;1.40;;
70806;SDS011;58882;52.170;5.386;2023-08-31T03:28:43;3.05;;;1.17;;
70806;SDS011;58882;52.170;5.386;2023-08-31T03:31:10;3.45;;;1.20;;
70806;SDS011;58882;52.170;5.386;2023-08-31T03:33:37;4.32;;;1.45;;
70806;SDS011;58882;52.170;5.386;2023-08-31T03:36:04;3.65;;;1.40;;
70806;SDS011;58882;52.170;5.386;2023-08-31T03:38:33;4.72;;;1.27;;
70806;SDS011;58882;52.170;5.386;2023-08-31T03:41:08;2.50;;;1.30;;
70806;SDS011;58882;52.170;5.386;2023-08-31T03:43:35;6.18;;;1.45;;
70806;SDS011;58882;52.170;5.386;2023-08-31T03:46:02;3.38;;;1.25;;
70806;SDS011;58882;52.170;5.386;2023-08-31T03:48:29;4.45;;;1.55;;
70806;SDS011;58882;52.170;5.386;2023-08-31T03:50:57;5.15;;;1.60;;
70806;SDS011;58882;52.170;5.386;2023-08-31T03:53:24;3.55;;;1.10;;
70806;SDS011;58882;52.170;5.386;2023-08-31T03:55:55;2.78;;;1.10;;
70806;SDS011;58882;52.170;5.386;2023-08-31T03:58:23;4.18;;;1.27;;
70806;SDS011;58882;52.170;5.386;2023-08-31T04:00:51;3.63;;;1.13;;
70806;SDS011;58882;52.170;5.386;2023-08-31T04:03:18;5.82;;;1.10;;
70806;SDS011;58882;52.170;5.386;2023-08-31T04:05:47;2.85;;;1.10;;
70806;SDS011;58882;52.170;5.386;2023-08-31T04:08:13;7.07;;;1.27;;
70806;SDS011;58882;52.170;5.386;2023-08-31T04:10:40;3.38;;;1.00;;
70806;SDS011;58882;52.170;5.386;2023-08-31T04:13:07;3.22;;;1.02;;
70806;SDS011;58882;52.170;5.386;2023-08-31T04:15:34;4.22;;;1.30;;
70806;SDS011;58882;52.170;5.386;2023-08-31T04:18:01;4.57;;;1.70;;
70806;SDS011;58882;52.170;5.386;2023-08-31T04:20:28;4.00;;;1.50;;
70806;SDS011;58882;52.170;5.386;2023-08-31T04:22:55;4.78;;;1.67;;
70806;SDS011;58882;52.170;5.386;2023-08-31T04:25:22;3.70;;;1.40;;
70806;SDS011;58882;52.170;5.386;2023-08-31T04:27:49;3.58;;;1.60;;
70806;SDS011;58882;52.170;5.386;2023-08-31T04:30:16;4.88;;;1.88;;
70806;SDS011;58882;52.170;5.386;2023-08-31T04:32:44;4.22;;;1.55;;
70806;SDS011;58882;52.170;5.386;2023-08-31T04:35:11;3.42;;;1.15;;
70806;SDS011;58882;52.170;5.386;2023-08-31T04:37:38;3.97;;;1.50;;
70806;SDS011;58882;52.170;5.386;2023-08-31T04:40:05;6.25;;;1.70;;
70806;SDS011;58882;52.170;5.386;2023-08-31T04:42:34;5.47;;;1.85;;
70806;SDS011;58882;52.170;5.386;2023-08-31T04:45:02;3.78;;;1.60;;
70806;SDS011;58882;52.170;5.386;2023-08-31T04:47:29;5.90;;;1.50;;
70806;SDS011;58882;52.170;5.386;2023-08-31T04:49:55;4.90;;;1.77;;
70806;SDS011;58882;52.170;5.386;2023-08-31T04:52:23;4.03;;;1.58;;
70806;SDS011;58882;52.170;5.386;2023-08-31T04:54:50;4.22;;;1.45;;
70806;SDS011;58882;52.170;5.386;2023-08-31T04:57:17;5.72;;;1.50;;
70806;SDS011;58882;52.170;5.386;2023-08-31T04:59:44;8.35;;;1.50;;
70806;SDS011;58882;52.170;5.386;2023-08-31T05:02:10;5.65;;;1.50;;
70806;SDS011;58882;52.170;5.386;2023-08-31T05:04:37;3.92;;;1.33;;
70806;SDS011;58882;52.170;5.386;2023-08-31T05:07:04;4.82;;;1.50;;
70806;SDS011;58882;52.170;5.386;2023-08-31T05:09:31;4.70;;;1.30;;
70806;SDS011;58882;52.170;5.386;2023-08-31T05:11:58;4.43;;;1.20;;
70806;SDS011;58882;52.170;5.386;2023-08-31T05:14:25;4.90;;;1.40;;
70806;SDS011;58882;52.170;5.386;2023-08-31T05:16:52;4.60;;;1.48;;
70806;SDS011;58882;52.170;5.386;2023-08-31T05:19:19;2.15;;;1.20;;
70806;SDS011;58882;52.170;5.386;2023-08-31T05:21:46;3.47;;;1.30;;
70806;SDS011;58882;52.170;5.386;2023-08-31T05:24:13;7.40;;;1.20;;
70806;SDS011;58882;52.170;5.386;2023-08-31T05:26:40;10.13;;;1.40;;
70806;SDS011;58882;52.170;5.386;2023-08-31T05:29:07;4.68;;;1.17;;
70806;SDS011;58882;52.170;5.386;2023-08-31T05:31:34;3.42;;;1.02;;
70806;SDS011;58882;52.170;5.386;2023-08-31T05:34:00;4.60;;;1.02;;
70806;SDS011;58882;52.170;5.386;2023-08-31T05:36:27;4.07;;;1.00;;
70806;SDS011;58882;52.170;5.386;2023-08-31T05:38:54;4.10;;;1.00;;
70806;SDS011;58882;52.170;5.386;2023-08-31T05:41:21;11.07;;;1.15;;
70806;SDS011;58882;52.170;5.386;2023-08-31T05:43:48;5.80;;;1.40;;
70806;SDS011;58882;52.170;5.386;2023-08-31T05:46:14;3.30;;;1.23;;
70806;SDS011;58882;52.170;5.386;2023-08-31T05:48:41;5.35;;;1.42;;
70806;SDS011;58882;52.170;5.386;2023-08-31T05:51:09;6.00;;;1.20;;
70806;SDS011;58882;52.170;5.386;2023-08-31T05:53:36;2.90;;;1.13;;
70806;SDS011;58882;52.170;5.386;2023-08-31T05:56:04;2.92;;;1.13;;
70806;SDS011;58882;52.170;5.386;2023-08-31T05:58:31;4.72;;;1.10;;
70806;SDS011;58882;52.170;5.386;2023-08-31T06:01:03;2.67;;;1.13;;
70806;SDS011;58882;52.170;5.386;2023-08-31T06:03:31;5.70;;;1.60;;
70806;SDS011;58882;52.170;5.386;2023-08-31T06:05:58;4.22;;;1.10;;
70806;SDS011;58882;52.170;5.386;2023-08-31T06:08:25;3.35;;;1.30;;
70806;SDS011;58882;52.170;5.386;2023-08-31T06:10:52;3.53;;;1.10;;
70806;SDS011;58882;52.170;5.386;2023-08-31T06:13:19;5.43;;;1.25;;
70806;SDS011;58882;52.170;5.386;2023-08-31T06:15:46;2.80;;;1.00;;
70806;SDS011;58882;52.170;5.386;2023-08-31T06:18:13;4.45;;;1.30;;
70806;SDS011;58882;52.170;5.386;2023-08-31T06:20:40;5.18;;;1.13;;
70806;SDS011;58882;52.170;5.386;2023-08-31T06:23:07;4.35;;;1.20;;
70806;SDS011;58882;52.170;5.386;2023-08-31T06:25:36;2.65;;;1.00;;
70806;SDS011;58882;52.170;5.386;2023-08-31T06:28:03;3.95;;;1.20;;
70806;SDS011;58882;52.170;5.386;2023-08-31T06:30:31;2.83;;;1.10;;
70806;SDS011;58882;52.170;5.386;2023-08-31T06:32:58;2.33;;;1.20;;
70806;SDS011;58882;52.170;5.386;2023-08-31T06:35:25;4.25;;;1.00;;
70806;SDS011;58882;52.170;5.386;2023-08-31T06:37:52;2.88;;;1.00;;
70806;SDS011;58882;52.170;5.386;2023-08-31T06:40:19;6.00;;;1.27;;
70806;SDS011;58882;52.170;5.386;2023-08-31T06:42:45;1.90;;;0.82;;
70806;SDS011;58882;52.170;5.386;2023-08-31T06:45:12;5.10;;;1.23;;
70806;SDS011;58882;52.170;5.386;2023-08-31T06:47:39;2.95;;;1.10;;
70806;SDS011;58882;52.170;5.386;2023-08-31T06:50:06;4.30;;;1.08;;
70806;SDS011;58882;52.170;5.386;2023-08-31T06:52:33;5.10;;;1.10;;
70806;SDS011;58882;52.170;5.386;2023-08-31T06:55:01;5.10;;;1.20;;
70806;SDS011;58882;52.170;5.386;2023-08-31T06:57:29;5.65;;;1.40;;
70806;SDS011;58882;52.170;5.386;2023-08-31T06:59:56;4.38;;;1.40;;
70806;SDS011;58882;52.170;5.386;2023-08-31T07:02:25;6.32;;;1.20;;
70806;SDS011;58882;52.170;5.386;2023-08-31T07:04:52;3.63;;;1.55;;
70806;SDS011;58882;52.170;5.386;2023-08-31T07:07:19;4.55;;;1.10;;
70806;SDS011;58882;52.170;5.386;2023-08-31T07:09:46;4.95;;;1.20;;
70806;SDS011;58882;52.170;5.386;2023-08-31T07:12:17;5.97;;;1.20;;
70806;SDS011;58882;52.170;5.386;2023-08-31T07:14:44;2.83;;;1.10;;
70806;SDS011;58882;52.170;5.386;2023-08-31T07:17:11;2.88;;;0.85;;
70806;SDS011;58882;52.170;5.386;2023-08-31T07:19:38;3.42;;;0.95;;
70806;SDS011;58882;52.170;5.386;2023-08-31T07:22:05;4.90;;;1.15;;
70806;SDS011;58882;52.170;5.386;2023-08-31T07:24:33;5.90;;;1.08;;
70806;SDS011;58882;52.170;5.386;2023-08-31T07:29:28;4.18;;;1.13;;
70806;SDS011;58882;52.170;5.386;2023-08-31T07:31:55;4.93;;;1.00;;
70806;SDS011;58882;52.170;5.386;2023-08-31T07:34:23;2.72;;;1.25;;
70806;SDS011;58882;52.170;5.386;2023-08-31T07:36:50;8.38;;;1.30;;
70806;SDS011;58882;52.170;5.386;2023-08-31T07:39:17;4.20;;;1.17;;
70806;SDS011;58882;52.170;5.386;2023-08-31T07:41:44;4.68;;;1.20;;
70806;SDS011;58882;52.170;5.386;2023-08-31T07:44:11;7.32;;;1.35;;
70806;SDS011;58882;52.170;5.386;2023-08-31T07:46:37;4.88;;;1.02;;
70806;SDS011;58882;52.170;5.386;2023-08-31T07:49:04;5.53;;;1.23;;
70806;SDS011;58882;52.170;5.386;2023-08-31T07:51:31;3.17;;;1.13;;
70806;SDS011;58882;52.170;5.386;2023-08-31T07:53:59;4.65;;;1.33;;
70806;SDS011;58882;52.170;5.386;2023-08-31T07:56:26;4.57;;;1.00;;
70806;SDS011;58882;52.170;5.386;2023-08-31T07:58:53;5.63;;;1.92;;
70806;SDS011;58882;52.170;5.386;2023-08-31T08:01:19;5.35;;;1.40;;
70806;SDS011;58882;52.170;5.386;2023-08-31T08:03:46;3.22;;;1.00;;
70806;SDS011;58882;52.170;5.386;2023-08-31T08:06:13;5.60;;;1.40;;
70806;SDS011;58882;52.170;5.386;2023-08-31T08:08:40;4.80;;;1.50;;
70806;SDS011;58882;52.170;5.386;2023-08-31T08:11:07;4.72;;;1.40;;
70806;SDS011;58882;52.170;5.386;2023-08-31T08:13:34;4.63;;;1.17;;
70806;SDS011;58882;52.170;5.386;2023-08-31T08:16:01;6.38;;;1.27;;
70806;SDS011;58882;52.170;5.386;2023-08-31T08:18:28;5.13;;;1.08;;
70806;SDS011;58882;52.170;5.386;2023-08-31T08:20:57;4.57;;;1.30;;
70806;SDS011;58882;52.170;5.386;2023-08-31T08:23:23;3.88;;;1.30;;
70806;SDS011;58882;52.170;5.386;2023-08-31T08:25:50;3.80;;;1.10;;
70806;SDS011;58882;52.170;5.386;2023-08-31T08:28:17;4.47;;;1.30;;
70806;SDS011;58882;52.170;5.386;2023-08-31T08:30:44;4.55;;;1.20;;
70806;SDS011;58882;52.170;5.386;2023-08-31T08:33:11;5.50;;;1.30;;
70806;SDS011;58882;52.170;5.386;2023-08-31T08:35:38;4.45;;;1.35;;
70806;SDS011;58882;52.170;5.386;2023-08-31T08:38:05;7.00;;;1.52;;
70806;SDS011;58882;52.170;5.386;2023-08-31T08:40:32;5.18;;;1.30;;
70806;SDS011;58882;52.170;5.386;2023-08-31T08:43:00;5.57;;;1.40;;
70806;SDS011;58882;52.170;5.386;2023-08-31T08:45:30;3.85;;;1.35;;
70806;SDS011;58882;52.170;5.386;2023-08-31T08:48:04;7.05;;;1.50;;
70806;SDS011;58882;52.170;5.386;2023-08-31T08:50:32;3.55;;;1.30;;
70806;SDS011;58882;52.170;5.386;2023-08-31T08:53:03;4.55;;;1.30;;
70806;SDS011;58882;52.170;5.386;2023-08-31T08:55:31;5.13;;;1.40;;
70806;SDS011;58882;52.170;5.386;2023-08-31T08:57:59;5.30;;;1.20;;
70806;SDS011;58882;52.170;5.386;2023-08-31T09:00:26;3.60;;;1.27;;
70806;SDS011;58882;52.170;5.386;2023-08-31T09:02:54;6.25;;;1.50;;
70806;SDS011;58882;52.170;5.386;2023-08-31T09:05:22;5.05;;;1.45;;
70806;SDS011;58882;52.170;5.386;2023-08-31T09:08:08;5.35;;;1.50;;
70806;SDS011;58882;52.170;5.386;2023-08-31T09:10:40;5.72;;;1.30;;
70806;SDS011;58882;52.170;5.386;2023-08-31T09:13:14;4.03;;;1.20;;
70806;SDS011;58882;52.170;5.386;2023-08-31T09:15:45;5.32;;;1.15;;
70806;SDS011;58882;52.170;5.386;2023-08-31T09:18:22;4.45;;;1.40;;
70806;SDS011;58882;52.170;5.386;2023-08-31T09:20:50;3.28;;;1.17;;
70806;SDS011;58882;52.170;5.386;2023-08-31T09:23:18;6.07;;;1.48;;
70806;SDS011;58882;52.170;5.386;2023-08-31T09:25:51;4.15;;;1.40;;
70806;SDS011;58882;52.170;5.386;2023-08-31T09:28:20;9.20;;;1.20;;
70806;SDS011;58882;52.170;5.386;2023-08-31T09:30:49;7.30;;;1.20;;
70806;SDS011;58882;52.170;5.386;2023-08-31T09:33:18;6.55;;;1.33;;
70806;SDS011;58882;52.170;5.386;2023-08-31T09:35:51;4.38;;;1.10;;
70806;SDS011;58882;52.170;5.386;2023-08-31T09:38:20;4.72;;;1.40;;
70806;SDS011;58882;52.170;5.386;2023-08-31T09:40:47;4.18;;;1.20;;
70806;SDS011;58882;52.170;5.386;2023-08-31T09:43:20;6.47;;;1.25;;
70806;SDS011;58882;52.170;5.386;2023-08-31T09:45:49;5.22;;;1.40;;
70806;SDS011;58882;52.170;5.386;2023-08-31T09:48:19;2.53;;;1.00;;
70806;SDS011;58882;52.170;5.386;2023-08-31T09:50:46;4.80;;;1.20;;
70806;SDS011;58882;52.170;5.386;2023-08-31T09:53:16;3.92;;;1.13;;
70806;SDS011;58882;52.170;5.386;2023-08-31T09:55:43;3.25;;;1.00;;
70806;SDS011;58882;52.170;5.386;2023-08-31T09:58:10;5.82;;;1.20;;
70806;SDS011;58882;52.170;5.386;2023-08-31T10:00:42;4.50;;;1.00;;
70806;SDS011;58882;52.170;5.386;2023-08-31T10:05:44;2.58;;;1.05;;
70806;SDS011;58882;52.170;5.386;2023-08-31T10:08:11;4.45;;;1.23;;
70806;SDS011;58882;52.170;5.386;2023-08-31T10:10:40;3.95;;;1.20;;
70806;SDS011;58882;52.170;5.386;2023-08-31T10:13:07;4.45;;;1.05;;
70806;SDS011;58882;52.170;5.386;2023-08-31T10:15:35;6.65;;;1.20;;
70806;SDS011;58882;52.170;5.386;2023-08-31T10:18:04;5.45;;;0.95;;
70806;SDS011;58882;52.170;5.386;2023-08-31T10:20:32;7.28;;;1.27;;
70806;SDS011;58882;52.170;5.386;2023-08-31T10:23:04;4.07;;;1.15;;
70806;SDS011;58882;52.170;5.386;2023-08-31T10:25:59;5.07;;;1.00;;
70806;SDS011;58882;52.170;5.386;2023-08-31T10:28:25;5.88;;;1.23;;
70806;SDS011;58882;52.170;5.386;2023-08-31T10:31:00;4.45;;;1.30;;
70806;SDS011;58882;52.170;5.386;2023-08-31T10:33:41;2.75;;;0.93;;
70806;SDS011;58882;52.170;5.386;2023-08-31T10:36:38;4.30;;;1.00;;
70806;SDS011;58882;52.170;5.386;2023-08-31T10:39:12;4.88;;;1.25;;
70806;SDS011;58882;52.170;5.386;2023-08-31T10:41:42;2.85;;;0.90;;
70806;SDS011;58882;52.170;5.386;2023-08-31T10:46:45;4.78;;;0.90;;
70806;SDS011;58882;52.170;5.386;2023-08-31T10:49:13;2.97;;;0.93;;
70806;SDS011;58882;52.170;5.386;2023-08-31T10:51:42;3.50;;;0.73;;
70806;SDS011;58882;52.170;5.386;2023-08-31T10:54:26;3.70;;;1.10;;
70806;SDS011;58882;52.170;5.386;2023-08-31T10:59:24;6.38;;;1.65;;
70806;SDS011;58882;52.170;5.386;2023-08-31T11:04:27;3.17;;;0.90;;
70806;SDS011;58882;52.170;5.386;2023-08-31T11:09:44;3.28;;;0.90;;
70806;SDS011;58882;52.170;5.386;2023-08-31T11:12:12;4.95;;;1.10;;
70806;SDS011;58882;52.170;5.386;2023-08-31T11:14:40;3.10;;;0.75;;
70806;SDS011;58882;52.170;5.386;2023-08-31T11:17:07;3.90;;;0.93;;
70806;SDS011;58882;52.170;5.386;2023-08-31T11:19:35;3.20;;;0.90;;
70806;SDS011;58882;52.170;5.386;2023-08-31T11:22:04;2.45;;;0.80;;
70806;SDS011;58882;52.170;5.386;2023-08-31T11:24:32;2.67;;;1.00;;
70806;SDS011;58882;52.170;5.386;2023-08-31T11:26:59;3.70;;;0.90;;
70806;SDS011;58882;52.170;5.386;2023-08-31T11:29:29;3.75;;;0.80;;
70806;SDS011;58882;52.170;5.386;2023-08-31T11:31:56;2.30;;;0.90;;
70806;SDS011;58882;52.170;5.386;2023-08-31T11:34:26;2.72;;;0.95;;
70806;SDS011;58882;52.170;5.386;2023-08-31T11:36:53;2.65;;;0.90;;
70806;SDS011;58882;52.170;5.386;2023-08-31T11:39:21;2.80;;;0.95;;
70806;SDS011;58882;52.170;5.386;2023-08-31T11:41:50;3.75;;;1.00;;
70806;SDS011;58882;52.170;5.386;2023-08-31T11:44:17;1.98;;;0.80;;
70806;SDS011;58882;52.170;5.386;2023-08-31T11:46:45;4.25;;;0.95;;
70806;SDS011;58882;52.170;5.386;2023-08-31T11:49:17;5.80;;;1.08;;
70806;SDS011;58882;52.170;5.386;2023-08-31T11:51:45;4.68;;;1.00;;
70806;SDS011;58882;52.170;5.386;2023-08-31T11:54:17;2.22;;;0.82;;
70806;SDS011;58882;52.170;5.386;2023-08-31T11:56:44;5.25;;;0.90;;
70806;SDS011;58882;52.170;5.386;2023-08-31T11:59:15;2.92;;;0.98;;
70806;SDS011;58882;52.170;5.386;2023-08-31T12:01:45;6.50;;;1.15;;
70806;SDS011;58882;52.170;5.386;2023-08-31T12:04:14;4.00;;;1.10;;
70806;SDS011;58882;52.170;5.386;2023-08-31T12:06:51;2.58;;;0.90;;
70806;SDS011;58882;52.170;5.386;2023-08-31T12:09:22;4.15;;;0.80;;
70806;SDS011;58882;52.170;5.386;2023-08-31T12:11:49;2.58;;;0.75;;
70806;SDS011;58882;52.170;5.386;2023-08-31T12:14:21;5.13;;;1.05;;
70806;SDS011;58882;52.170;5.386;2023-08-31T12:16:49;2.03;;;0.77;;
70806;SDS011;58882;52.170;5.386;2023-08-31T12:19:17;4.13;;;1.05;;
70806;SDS011;58882;52.170;5.386;2023-08-31T12:21:45;3.10;;;0.88;;
70806;SDS011;58882;52.170;5.386;2023-08-31T12:24:13;2.83;;;0.80;;
70806;SDS011;58882;52.170;5.386;2023-08-31T12:26:40;4.32;;;1.00;;
70806;SDS011;58882;52.170;5.386;2023-08-31T12:29:07;3.00;;;1.00;;
70806;SDS011;58882;52.170;5.386;2023-08-31T12:31:34;4.28;;;0.95;;
70806;SDS011;58882;52.170;5.386;2023-08-31T12:34:02;4.20;;;1.00;;
70806;SDS011;58882;52.170;5.386;2023-08-31T12:36:32;1.77;;;0.80;;
70806;SDS011;58882;52.170;5.386;2023-08-31T12:38:59;4.45;;;1.10;;
70806;SDS011;58882;52.170;5.386;2023-08-31T12:43:55;3.55;;;1.00;;
70806;SDS011;58882;52.170;5.386;2023-08-31T12:46:22;2.05;;;0.75;;
70806;SDS011;58882;52.170;5.386;2023-08-31T12:48:49;5.35;;;1.10;;
70806;SDS011;58882;52.170;5.386;2023-08-31T12:51:17;3.35;;;0.95;;
70806;SDS011;58882;52.170;5.386;2023-08-31T12:53:44;2.88;;;0.80;;
70806;SDS011;58882;52.170;5.386;2023-08-31T12:56:12;3.60;;;1.00;;
70806;SDS011;58882;52.170;5.386;2023-08-31T12:58:41;3.40;;;0.90;;
70806;SDS011;58882;52.170;5.386;2023-08-31T13:01:08;3.00;;;1.00;;
70806;SDS011;58882;52.170;5.386;2023-08-31T13:03:35;3.95;;;0.90;;
70806;SDS011;58882;52.170;5.386;2023-08-31T13:06:02;1.50;;;0.90;;
70806;SDS011;58882;52.170;5.386;2023-08-31T13:08:28;2.00;;;0.80;;
70806;SDS011;58882;52.170;5.386;2023-08-31T13:10:55;5.03;;;0.90;;
70806;SDS011;58882;52.170;5.386;2023-08-31T13:13:22;2.17;;;0.90;;
70806;SDS011;58882;52.170;5.386;2023-08-31T13:15:49;2.67;;;0.70;;
70806;SDS011;58882;52.170;5.386;2023-08-31T13:18:16;4.03;;;0.82;;
70806;SDS011;58882;52.170;5.386;2023-08-31T13:20:50;3.20;;;0.77;;
70806;SDS011;58882;52.170;5.386;2023-08-31T13:23:18;3.30;;;0.90;;
70806;SDS011;58882;52.170;5.386;2023-08-31T13:25:45;5.40;;;0.90;;
70806;SDS011;58882;52.170;5.386;2023-08-31T13:28:12;6.22;;;1.23;;
70806;SDS011;58882;52.170;5.386;2023-08-31T13:30:40;5.00;;;1.20;;
70806;SDS011;58882;52.170;5.386;2023-08-31T13:33:08;3.42;;;0.88;;
70806;SDS011;58882;52.170;5.386;2023-08-31T13:35:35;3.25;;;0.75;;
70806;SDS011;58882;52.170;5.386;2023-08-31T13:38:02;2.90;;;0.70;;
70806;SDS011;58882;52.170;5.386;2023-08-31T13:40:29;5.20;;;1.00;;
70806;SDS011;58882;52.170;5.386;2023-08-31T13:42:58;3.50;;;1.00;;
70806;SDS011;58882;52.170;5.386;2023-08-31T13:45:29;3.20;;;1.00;;
70806;SDS011;58882;52.170;5.386;2023-08-31T13:47:57;3.63;;;1.00;;
70806;SDS011;58882;52.170;5.386;2023-08-31T13:50:30;4.10;;;0.95;;
70806;SDS011;58882;52.170;5.386;2023-08-31T13:52:57;3.95;;;0.90;;
70806;SDS011;58882;52.170;5.386;2023-08-31T13:55:24;4.53;;;0.95;;
70806;SDS011;58882;52.170;5.386;2023-08-31T13:57:51;3.83;;;0.90;;
70806;SDS011;58882;52.170;5.386;2023-08-31T14:00:18;4.45;;;1.10;;
70806;SDS011;58882;52.170;5.386;2023-08-31T14:02:45;3.83;;;1.08;;
70806;SDS011;58882;52.170;5.386;2023-08-31T14:05:12;2.13;;;0.98;;
70806;SDS011;58882;52.170;5.386;2023-08-31T14:07:41;4.68;;;1.05;;
70806;SDS011;58882;52.170;5.386;2023-08-31T14:10:08;4.03;;;1.08;;
70806;SDS011;58882;52.170;5.386;2023-08-31T14:12:35;3.50;;;0.95;;
70806;SDS011;58882;52.170;5.386;2023-08-31T14:15:02;4.10;;;1.13;;
70806;SDS011;58882;52.170;5.386;2023-08-31T14:17:30;4.53;;;1.10;;
70806;SDS011;58882;52.170;5.386;2023-08-31T14:19:58;4.00;;;0.88;;
70806;SDS011;58882;52.170;5.386;2023-08-31T14:22:26;3.53;;;0.93;;
70806;SDS011;58882;52.170;5.386;2023-08-31T14:27:21;4.68;;;1.10;;
70806;SDS011;58882;52.170;5.386;2023-08-31T14:29:49;4.32;;;1.17;;
70806;SDS011;58882;52.170;5.386;2023-08-31T14:32:16;2.90;;;0.88;;
70806;SDS011;58882;52.170;5.386;2023-08-31T14:34:43;4.22;;;1.10;;
70806;SDS011;58882;52.170;5.386;2023-08-31T14:37:10;5.40;;;1.50;;
70806;SDS011;58882;52.170;5.386;2023-08-31T14:39:37;4.28;;;1.00;;
70806;SDS011;58882;52.170;5.386;2023-08-31T14:42:04;3.58;;;1.20;;
70806;SDS011;58882;52.170;5.386;2023-08-31T14:44:30;3.10;;;1.13;;
70806;SDS011;58882;52.170;5.386;2023-08-31T14:46:57;5.50;;;1.20;;
70806;SDS011;58882;52.170;5.386;2023-08-31T14:49:24;4.68;;;0.80;;
70806;SDS011;58882;52.170;5.386;2023-08-31T14:51:51;6.68;;;1.30;;
70806;SDS011;58882;52.170;5.386;2023-08-31T14:54:18;4.30;;;1.13;;
70806;SDS011;58882;52.170;5.386;2023-08-31T14:56:45;4.07;;;0.90;;
70806;SDS011;58882;52.170;5.386;2023-08-31T14:59:12;4.72;;;1.30;;
70806;SDS011;58882;52.170;5.386;2023-08-31T15:01:39;6.80;;;1.20;;
70806;SDS011;58882;52.170;5.386;2023-08-31T15:04:06;4.57;;;1.15;;
70806;SDS011;58882;52.170;5.386;2023-08-31T15:06:32;3.60;;;1.10;;
70806;SDS011;58882;52.170;5.386;2023-08-31T15:08:59;5.18;;;1.25;;
70806;SDS011;58882;52.170;5.386;2023-08-31T15:11:27;4.80;;;1.20;;
70806;SDS011;58882;52.170;5.386;2023-08-31T15:16:22;3.45;;;1.10;;
70806;SDS011;58882;52.170;5.386;2023-08-31T15:18:50;3.75;;;1.10;;
70806;SDS011;58882;52.170;5.386;2023-08-31T15:21:17;4.72;;;1.10;;
70806;SDS011;58882;52.170;5.386;2023-08-31T15:23:45;3.72;;;1.20;;
70806;SDS011;58882;52.170;5.386;2023-08-31T15:26:12;3.90;;;1.38;;